Time;durP1;ratioP1;P1;durP2;ratioP2;P2;SDS_P1;SDS_P2;PMS_P1;PMS_P2;Temp;Humidity;BMP_temperature;BMP_pressure;BME280_temperature;BME280_humidity;BME280_pressure;Samples;Min_cycle;Max_cycle;Signal;HPM_P1;HPM_P2
2023/09/17 00:00:28;;;;;;;3.97;2.67;;;19.40;97.00;;;;;;5055222;28;20252;-68
2023/09/17 00:02:55;;;;;;;5.35;3.10;;;19.30;97.20;;;;;;5047161;28;20103;-68
2023/09/17 00:05:21;;;;;;;6.40;2.85;;;19.30;97.20;;;;;;5035136;28;20033;-68
2023/09/17 00:07:47;;;;;;;4.10;3.30;;;19.30;97.30;;;;;;5034525;28;20026;-68
2023/09/17 00:10:13;;;;;;;3.95;3.08;;;19.20;97.50;;;;;;5035118;28;20080;-68
2023/09/17 00:12:39;;;;;;;6.25;3.55;;;19.20;97.90;;;;;;5034496;28;20026;-68
2023/09/17 00:15:05;;;;;;;4.18;3.17;;;19.20;98.40;;;;;;5034742;28;20100;-68
2023/09/17 00:17:31;;;;;;;7.85;3.40;;;19.20;98.60;;;;;;5034978;28;20040;-68
2023/09/17 00:19:57;;;;;;;3.67;3.20;;;19.10;98.80;;;;;;5034490;28;20092;-68
2023/09/17 00:22:22;;;;;;;5.47;3.33;;;19.10;99.10;;;;;;5035017;28;20028;-68
2023/09/17 00:24:48;;;;;;;5.53;3.10;;;19.10;99.20;;;;;;5034655;28;20025;-68
2023/09/17 00:27:13;;;;;;;7.40;3.30;;;19.10;99.40;;;;;;5034969;28;20400;-68
2023/09/17 00:29:39;;;;;;;5.32;3.40;;;19.10;99.50;;;;;;5034568;28;20458;-68
2023/09/17 00:32:05;;;;;;;10.02;3.10;;;19.10;99.60;;;;;;5017076;28;20030;-68
2023/09/17 00:34:30;;;;;;;5.03;3.45;;;19.10;99.60;;;;;;5034754;28;20454;-68
2023/09/17 00:36:56;;;;;;;6.03;3.83;;;19.10;99.70;;;;;;5034181;28;20021;-68
2023/09/17 00:39:22;;;;;;;5.18;3.13;;;19.00;99.80;;;;;;5034742;28;20061;-68
2023/09/17 00:41:48;;;;;;;5.65;3.70;;;19.00;99.90;;;;;;5034313;28;20053;-68
2023/09/17 00:44:14;;;;;;;3.80;3.15;;;19.00;99.90;;;;;;5034674;28;20036;-68
2023/09/17 00:46:40;;;;;;;4.93;3.42;;;19.00;99.90;;;;;;5032708;28;20446;-68
2023/09/17 00:49:13;;;;;;;4.50;3.58;;;18.90;99.90;;;;;;5034393;28;20040;-67
2023/09/17 00:51:40;;;;;;;4.15;3.65;;;18.90;99.90;;;;;;5034141;28;20047;-68
2023/09/17 00:54:07;;;;;;;4.13;3.47;;;18.90;99.90;;;;;;5034017;28;20481;-67
2023/09/17 00:56:33;;;;;;;4.53;3.42;;;18.90;99.90;;;;;;5036576;28;20071;-67
2023/09/17 00:58:59;;;;;;;6.13;3.28;;;18.90;99.90;;;;;;5033667;28;20482;-66
2023/09/17 01:01:25;;;;;;;10.80;3.40;;;18.90;99.90;;;;;;5034125;28;20489;-71
2023/09/17 01:03:51;;;;;;;4.18;3.53;;;18.90;99.90;;;;;;5033629;28;20033;-67
2023/09/17 01:06:17;;;;;;;4.30;3.20;;;18.80;99.90;;;;;;5034094;28;20060;-67
2023/09/17 01:08:42;;;;;;;5.20;3.60;;;18.80;99.90;;;;;;5033656;28;20025;-67
2023/09/17 01:11:09;;;;;;;5.32;3.72;;;18.70;99.90;;;;;;5034157;28;20596;-67
2023/09/17 01:13:40;;;;;;;7.10;3.60;;;18.70;99.90;;;;;;5033862;28;20025;-67
2023/09/17 01:16:07;;;;;;;5.22;3.50;;;18.70;99.90;;;;;;5017320;28;20021;-67
2023/09/17 01:18:34;;;;;;;6.57;3.75;;;18.70;99.90;;;;;;5034080;28;20030;-68
2023/09/17 01:21:12;;;;;;;7.68;3.70;;;18.60;99.90;;;;;;5033628;28;20036;-68
2023/09/17 01:23:49;;;;;;;5.57;3.42;;;18.60;99.90;;;;;;5033550;28;20086;-69
2023/09/17 01:26:24;;;;;;;4.18;3.50;;;18.60;99.90;;;;;;5033901;28;20021;-66
2023/09/17 01:28:52;;;;;;;4.47;3.35;;;18.60;99.90;;;;;;5033480;28;20040;-68
2023/09/17 01:31:18;;;;;;;6.00;3.88;;;18.50;99.90;;;;;;5034045;28;20362;-67
2023/09/17 01:33:44;;;;;;;7.65;3.63;;;18.50;99.90;;;;;;5032896;28;20021;-67
2023/09/17 01:36:33;;;;;;;4.55;3.80;;;18.50;99.90;;;;;;5033610;28;20087;-67
2023/09/17 01:39:27;;;;;;;5.57;3.85;;;18.50;99.90;;;;;;5018850;28;20655;-67
2023/09/17 01:41:53;;;;;;;5.63;4.30;;;18.50;99.90;;;;;;5029719;28;20041;-67
2023/09/17 01:44:22;;;;;;;4.85;3.58;;;18.50;99.90;;;;;;5033643;28;20044;-68
2023/09/17 01:46:48;;;;;;;4.18;3.67;;;18.40;99.90;;;;;;5033094;28;20018;-68
2023/09/17 01:49:14;;;;;;;4.75;3.97;;;18.40;99.90;;;;;;5033225;28;20377;-67
2023/09/17 01:51:41;;;;;;;7.50;3.78;;;18.40;99.90;;;;;;5033041;28;20037;-69
2023/09/17 01:54:07;;;;;;;6.97;3.50;;;18.40;99.90;;;;;;5033222;28;20087;-68
2023/09/17 01:56:34;;;;;;;5.13;3.83;;;18.40;99.90;;;;;;5035152;28;20045;-68
2023/09/17 01:59:00;;;;;;;7.05;4.28;;;18.30;99.90;;;;;;5032843;28;20111;-68
2023/09/17 02:01:26;;;;;;;4.00;3.60;;;18.30;99.90;;;;;;5034555;28;20447;-68
2023/09/17 02:03:52;;;;;;;7.47;3.90;;;18.30;99.90;;;;;;5032706;28;20354;-68
2023/09/17 02:06:17;;;;;;;6.18;3.90;;;18.30;99.90;;;;;;5032762;28;20029;-68
2023/09/17 02:08:43;;;;;;;13.23;4.22;;;18.30;99.90;;;;;;5032357;28;20021;-68
2023/09/17 02:11:08;;;;;;;10.40;4.07;;;18.30;99.90;;;;;;5033047;28;20068;-66
2023/09/17 02:13:34;;;;;;;4.45;3.72;;;18.20;99.90;;;;;;5033015;28;20052;-66
2023/09/17 02:16:00;;;;;;;4.45;3.60;;;18.30;99.90;;;;;;5032598;28;20025;-68
2023/09/17 02:18:26;;;;;;;4.45;4.05;;;18.20;99.90;;;;;;5032968;28;20033;-68
2023/09/17 02:20:52;;;;;;;8.10;3.90;;;18.20;99.90;;;;;;5032530;28;20120;-68
2023/09/17 02:23:17;;;;;;;4.00;3.60;;;18.20;99.90;;;;;;5032903;28;20103;-68
2023/09/17 02:25:43;;;;;;;5.18;3.95;;;18.20;99.90;;;;;;5032473;28;20036;-69
2023/09/17 02:28:09;;;;;;;6.75;3.85;;;18.10;99.90;;;;;;5015320;28;20030;-68
2023/09/17 02:30:34;;;;;;;7.05;4.57;;;18.10;99.90;;;;;;5032825;28;20032;-68
2023/09/17 02:33:00;;;;;;;5.30;4.00;;;18.10;99.90;;;;;;5032395;28;20021;-68
2023/09/17 02:35:25;;;;;;;10.20;4.75;;;18.10;99.90;;;;;;5032776;28;20346;-68
2023/09/17 02:37:51;;;;;;;10.25;4.68;;;18.00;99.90;;;;;;5032250;28;20029;-68
2023/09/17 02:40:17;;;;;;;7.43;4.15;;;18.10;99.90;;;;;;5032754;28;20029;-68
2023/09/17 02:42:44;;;;;;;6.28;4.03;;;18.00;99.90;;;;;;5032668;28;20466;-68
2023/09/17 02:45:11;;;;;;;4.90;4.32;;;18.00;99.90;;;;;;5032350;28;20489;-68
2023/09/17 02:47:40;;;;;;;5.97;4.03;;;18.00;99.90;;;;;;5032573;28;20029;-68
2023/09/17 02:50:06;;;;;;;4.47;4.05;;;18.00;99.90;;;;;;5032038;28;20033;-68
2023/09/17 02:52:31;;;;;;;8.25;3.92;;;18.00;99.90;;;;;;5035181;28;20029;-67
2023/09/17 02:54:57;;;;;;;7.07;4.13;;;18.00;99.90;;;;;;5031773;28;20034;-68
2023/09/17 02:57:23;;;;;;;7.95;4.50;;;17.90;99.90;;;;;;5031953;28;20124;-67
2023/09/17 02:59:48;;;;;;;7.13;4.13;;;17.90;99.90;;;;;;5032030;28;20474;-68
2023/09/17 03:02:14;;;;;;;4.80;4.20;;;17.90;99.90;;;;;;5032439;28;20470;-67
2023/09/17 03:04:40;;;;;;;8.32;4.60;;;17.80;99.90;;;;;;5032212;28;20037;-67
2023/09/17 03:07:05;;;;;;;5.05;4.30;;;17.80;99.90;;;;;;5031737;28;20030;-69
2023/09/17 03:09:31;;;;;;;7.53;4.30;;;17.80;99.90;;;;;;5034060;28;20033;-68
2023/09/17 03:11:57;;;;;;;4.32;3.85;;;17.80;99.90;;;;;;5035979;28;20462;-68
2023/09/17 03:14:23;;;;;;;8.07;4.18;;;17.80;99.90;;;;;;5035971;28;20458;-68
2023/09/17 03:16:48;;;;;;;8.60;4.57;;;17.80;99.90;;;;;;5035874;28;20025;-69
2023/09/17 03:19:14;;;;;;;5.20;4.15;;;17.80;99.90;;;;;;5036309;28;20026;-68
2023/09/17 03:21:42;;;;;;;7.07;4.20;;;17.70;99.90;;;;;;5036301;28;20104;-68
2023/09/17 03:24:09;;;;;;;6.72;4.18;;;17.70;99.90;;;;;;5035749;28;20025;-68
2023/09/17 03:26:36;;;;;;;6.63;4.65;;;17.70;99.90;;;;;;5036156;28;20057;-68
2023/09/17 03:29:02;;;;;;;9.80;4.90;;;17.70;99.90;;;;;;5035399;28;20029;-68
2023/09/17 03:31:27;;;;;;;5.65;4.72;;;17.70;99.90;;;;;;5035975;28;20029;-68
2023/09/17 03:33:54;;;;;;;4.75;4.05;;;17.60;99.90;;;;;;5035195;28;20030;-69
2023/09/17 03:36:20;;;;;;;8.48;4.53;;;17.60;99.90;;;;;;5018173;28;20029;-68
2023/09/17 03:38:46;;;;;;;5.28;4.78;;;17.60;99.90;;;;;;5035815;28;20489;-67
2023/09/17 03:41:12;;;;;;;11.23;4.65;;;17.60;99.90;;;;;;5035149;28;20029;-68
2023/09/17 03:43:37;;;;;;;6.07;4.40;;;17.50;99.90;;;;;;5035820;28;20026;-68
2023/09/17 03:46:06;;;;;;;6.38;5.10;;;17.50;99.90;;;;;;5035411;28;20018;-69
2023/09/17 03:48:32;;;;;;;10.10;5.13;;;17.50;99.90;;;;;;5038017;28;20024;-67
2023/09/17 03:50:59;;;;;;;4.78;4.28;;;17.50;99.90;;;;;;5035286;28;20025;-67
2023/09/17 03:53:25;;;;;;;6.57;4.95;;;17.50;99.90;;;;;;5035591;28;20103;-68
2023/09/17 03:55:52;;;;;;;6.85;4.63;;;17.50;99.90;;;;;;5034863;28;20116;-68
2023/09/17 03:58:17;;;;;;;8.23;4.57;;;17.50;99.90;;;;;;5049188;28;20032;-68
2023/09/17 04:00:44;;;;;;;9.75;4.82;;;17.40;99.90;;;;;;5055221;28;20025;-68
2023/09/17 04:03:09;;;;;;;8.50;4.93;;;17.40;99.90;;;;;;5054969;28;20029;-68
2023/09/17 04:05:36;;;;;;;8.25;4.88;;;17.40;99.90;;;;;;5055068;28;20031;-68
2023/09/17 04:08:03;;;;;;;6.40;5.13;;;17.40;99.90;;;;;;5054835;28;20033;-68
2023/09/17 04:10:29;;;;;;;7.45;5.13;;;17.40;99.90;;;;;;5054946;28;20035;-68
2023/09/17 04:12:54;;;;;;;14.18;5.78;;;17.40;99.90;;;;;;5054883;28;20096;-68
2023/09/17 04:15:20;;;;;;;6.25;4.78;;;17.40;99.90;;;;;;5055199;28;20028;-68
2023/09/17 04:17:52;;;;;;;5.93;5.13;;;17.30;99.90;;;;;;5055396;28;20037;-68
2023/09/17 04:20:19;;;;;;;6.95;5.05;;;17.40;99.90;;;;;;5055253;28;20027;-68
2023/09/17 04:22:47;;;;;;;5.45;4.78;;;17.40;99.90;;;;;;5055010;28;20051;-68
2023/09/17 04:25:13;;;;;;;8.70;4.75;;;17.30;99.90;;;;;;5054572;28;20032;-68
2023/09/17 04:27:44;;;;;;;8.02;4.53;;;17.30;99.90;;;;;;5055190;28;20039;-68
2023/09/17 04:30:12;;;;;;;7.15;4.80;;;17.30;99.90;;;;;;5054779;28;20041;-67
2023/09/17 04:32:40;;;;;;;5.05;4.13;;;17.30;99.90;;;;;;5054751;28;20273;-68
2023/09/17 04:35:07;;;;;;;7.80;5.57;;;17.30;99.90;;;;;;5054024;28;20029;-68
2023/09/17 04:37:35;;;;;;;7.18;4.68;;;17.30;99.90;;;;;;5054661;28;20037;-67
2023/09/17 04:40:02;;;;;;;8.02;4.90;;;17.30;99.90;;;;;;5054228;28;20096;-68
2023/09/17 04:42:28;;;;;;;8.10;5.53;;;17.30;99.90;;;;;;5054967;28;20079;-67
2023/09/17 04:44:54;;;;;;;5.13;4.60;;;17.30;99.90;;;;;;5052883;28;20543;-69
2023/09/17 04:47:19;;;;;;;6.47;5.05;;;17.30;99.90;;;;;;5036746;28;20125;-67
2023/09/17 04:49:45;;;;;;;6.18;5.15;;;17.30;99.90;;;;;;5034331;28;20075;-66
2023/09/17 04:52:11;;;;;;;6.05;4.40;;;17.30;99.90;;;;;;5034158;28;20433;-68
2023/09/17 04:54:38;;;;;;;9.30;4.85;;;17.30;99.90;;;;;;5034380;28;20036;-67
2023/09/17 04:57:04;;;;;;;11.02;5.47;;;17.30;99.90;;;;;;5033851;28;20396;-69
2023/09/17 04:59:30;;;;;;;7.00;4.90;;;17.30;99.90;;;;;;5034314;28;20075;-69
2023/09/17 05:01:56;;;;;;;11.45;5.25;;;17.30;99.90;;;;;;5033677;28;20038;-69
2023/09/17 05:04:24;;;;;;;5.43;4.30;;;17.30;99.90;;;;;;5034456;28;20104;-68
2023/09/17 05:06:49;;;;;;;10.80;5.35;;;17.30;99.90;;;;;;5016575;28;20359;-68
2023/09/17 05:09:15;;;;;;;9.32;4.93;;;17.40;99.90;;;;;;5033688;28;20032;-68
2023/09/17 05:11:41;;;;;;;6.00;4.85;;;17.40;99.90;;;;;;5033971;28;20065;-68
2023/09/17 05:14:06;;;;;;;9.38;4.97;;;17.40;99.90;;;;;;5033903;28;20033;-67
2023/09/17 05:16:32;;;;;;;6.22;5.38;;;17.40;99.90;;;;;;5034165;28;20025;-67
2023/09/17 05:18:57;;;;;;;6.72;4.85;;;17.40;99.90;;;;;;5033618;28;20462;-69
2023/09/17 05:21:23;;;;;;;6.63;4.97;;;17.40;99.90;;;;;;5033950;28;20156;-67
2023/09/17 05:23:49;;;;;;;6.15;4.68;;;17.40;99.90;;;;;;5033887;28;20080;-68
2023/09/17 05:26:15;;;;;;;7.57;5.18;;;17.50;99.90;;;;;;5033776;28;20028;-68
2023/09/17 05:28:41;;;;;;;9.18;5.20;;;17.50;99.90;;;;;;5033930;28;20036;-68
2023/09/17 05:31:06;;;;;;;9.48;5.07;;;17.50;99.90;;;;;;5033149;28;20378;-68
2023/09/17 05:33:32;;;;;;;6.68;4.70;;;17.50;99.90;;;;;;5033262;28;20033;-67
2023/09/17 05:35:58;;;;;;;8.50;4.72;;;17.50;99.90;;;;;;5033232;28;20461;-68
2023/09/17 05:38:25;;;;;;;7.05;4.85;;;17.60;99.90;;;;;;5033825;28;20088;-67
2023/09/17 05:40:51;;;;;;;6.60;5.15;;;17.60;99.90;;;;;;5033720;28;20040;-68
2023/09/17 05:43:16;;;;;;;8.13;5.15;;;17.60;99.90;;;;;;5033238;28;20037;-68
2023/09/17 05:45:42;;;;;;;9.80;4.93;;;17.70;99.90;;;;;;5033149;28;20033;-69
2023/09/17 05:48:08;;;;;;;7.53;5.03;;;17.70;99.90;;;;;;5032926;28;20025;-69
2023/09/17 05:50:33;;;;;;;6.55;4.68;;;17.70;99.90;;;;;;5033594;28;20347;-69
2023/09/17 05:52:59;;;;;;;6.38;5.22;;;17.80;99.90;;;;;;5035394;28;20022;-69
2023/09/17 05:55:24;;;;;;;8.02;5.05;;;17.70;99.90;;;;;;5032956;28;20083;-68
2023/09/17 05:57:50;;;;;;;11.00;4.82;;;17.80;99.90;;;;;;5046501;28;20049;-68
2023/09/17 06:00:17;;;;;;;5.30;4.80;;;17.80;99.90;;;;;;5051685;28;20377;-68
2023/09/17 06:02:43;;;;;;;7.35;4.60;;;17.90;99.90;;;;;;5052568;28;20033;-68
2023/09/17 06:05:09;;;;;;;5.78;5.15;;;17.90;99.90;;;;;;5051937;28;20031;-68
2023/09/17 06:07:34;;;;;;;5.25;4.75;;;17.90;99.90;;;;;;5052322;28;20017;-68
2023/09/17 06:10:00;;;;;;;9.48;5.47;;;18.00;99.90;;;;;;5051802;28;20033;-70
2023/09/17 06:12:26;;;;;;;8.85;5.20;;;18.00;99.90;;;;;;5034323;28;20033;-68
2023/09/17 06:14:51;;;;;;;6.25;5.30;;;18.00;99.90;;;;;;5052101;28;20531;-68
2023/09/17 06:17:17;;;;;;;7.53;5.70;;;18.10;99.90;;;;;;5051947;28;20417;-68
2023/09/17 06:19:43;;;;;;;6.03;5.22;;;18.10;99.90;;;;;;5052193;28;20545;-67
2023/09/17 06:22:09;;;;;;;7.03;5.60;;;18.10;99.90;;;;;;5051643;28;20082;-68
2023/09/17 06:24:35;;;;;;;8.55;6.07;;;18.10;99.90;;;;;;5051746;28;20170;-69
2023/09/17 06:27:00;;;;;;;7.45;5.93;;;18.20;99.90;;;;;;5034331;28;20025;-69
2023/09/17 06:29:26;;;;;;;6.10;5.50;;;18.30;99.90;;;;;;5052271;28;20017;-68
2023/09/17 06:31:52;;;;;;;8.30;5.82;;;18.30;99.90;;;;;;5052432;28;20025;-68
2023/09/17 06:34:17;;;;;;;8.20;5.40;;;18.30;99.90;;;;;;5051851;28;20040;-69
2023/09/17 06:36:43;;;;;;;8.27;5.50;;;18.40;99.90;;;;;;5052643;28;20369;-69
2023/09/17 06:39:09;;;;;;;7.75;6.53;;;18.40;99.90;;;;;;5052508;28;20032;-69
2023/09/17 06:41:35;;;;;;;6.57;5.55;;;18.50;99.90;;;;;;5052567;28;20059;-69
2023/09/17 06:44:00;;;;;;;6.95;4.63;;;18.50;99.90;;;;;;5032731;28;20029;-70
2023/09/17 06:46:26;;;;;;;10.30;6.05;;;18.60;99.90;;;;;;5014882;28;20021;-69
2023/09/17 06:48:52;;;;;;;8.07;5.55;;;18.70;99.90;;;;;;5014125;28;20117;-68
2023/09/17 06:51:19;;;;;;;6.50;4.80;;;18.70;99.90;;;;;;5031266;28;20087;-68
2023/09/17 06:53:45;;;;;;;7.78;6.15;;;18.90;99.90;;;;;;5014416;28;20421;-68
2023/09/17 06:56:13;;;;;;;6.90;5.22;;;19.10;99.90;;;;;;4992466;28;1126757;-69
2023/09/17 06:58:38;;;;;;;8.40;4.88;;;19.30;99.90;;;;;;5015303;28;20037;-69
2023/09/17 07:01:05;;;;;;;5.97;5.20;;;19.60;99.90;;;;;;5032230;28;20059;-68
2023/09/17 07:03:32;;;;;;;8.40;4.93;;;20.00;99.90;;;;;;5032715;28;20061;-69
2023/09/17 07:05:58;;;;;;;7.60;4.32;;;20.40;99.90;;;;;;5032676;28;20037;-69
2023/09/17 07:08:24;;;;;;;7.35;4.63;;;20.80;99.90;;;;;;5032161;28;20029;-69
2023/09/17 07:10:51;;;;;;;5.70;4.28;;;21.20;99.90;;;;;;5032340;28;20064;-68
2023/09/17 07:13:16;;;;;;;6.65;4.75;;;21.80;99.90;;;;;;5031937;28;20112;-67
2023/09/17 07:15:44;;;;;;;8.15;4.50;;;22.40;97.70;;;;;;5032477;28;20201;-68
2023/09/17 07:18:10;;;;;;;7.63;4.20;;;23.40;95.80;;;;;;5032174;28;20561;-69
2023/09/17 07:20:37;;;;;;;6.75;3.72;;;24.30;92.90;;;;;;5032596;28;20024;-70
2023/09/17 07:23:02;;;;;;;5.72;4.15;;;25.50;87.40;;;;;;5032556;28;20025;-69
2023/09/17 07:25:28;;;;;;;4.93;3.95;;;26.40;81.90;;;;;;5032060;28;20033;-67
2023/09/17 07:27:54;;;;;;;7.53;3.97;;;27.30;76.40;;;;;;5032494;28;20030;-69
2023/09/17 07:30:20;;;;;;;4.22;3.83;;;28.00;73.40;;;;;;5031997;28;20386;-68
2023/09/17 07:32:45;;;;;;;9.57;4.40;;;28.50;70.40;;;;;;5032220;28;20455;-67
2023/09/17 07:35:11;;;;;;;5.00;3.78;;;29.10;68.20;;;;;;5032074;28;20037;-69
2023/09/17 07:37:37;;;;;;;6.47;3.58;;;29.40;64.50;;;;;;5014775;28;20323;-69
2023/09/17 07:40:05;;;;;;;3.60;3.13;;;30.10;62.40;;;;;;5014521;28;20032;-69
2023/09/17 07:42:31;;;;;;;3.95;3.13;;;30.60;59.70;;;;;;5032283;28;20025;-67
2023/09/17 07:44:57;;;;;;;5.20;3.30;;;31.10;57.80;;;;;;5032282;28;20478;-68
2023/09/17 07:47:23;;;;;;;5.75;2.83;;;31.50;56.10;;;;;;5031844;28;20363;-68
2023/09/17 07:49:48;;;;;;;7.18;3.53;;;32.00;54.60;;;;;;5031941;28;20040;-68
2023/09/17 07:52:14;;;;;;;4.45;3.15;;;32.40;53.00;;;;;;5031490;28;20072;-69
2023/09/17 07:54:41;;;;;;;4.90;3.10;;;32.60;52.80;;;;;;5045111;28;20124;-69
2023/09/17 07:57:08;;;;;;;3.90;3.50;;;33.10;52.20;;;;;;5052761;28;20473;-70
2023/09/17 07:59:33;;;;;;;6.78;3.10;;;33.30;50.40;;;;;;5055590;28;20119;-68
2023/09/17 08:01:59;;;;;;;4.35;3.63;;;33.50;50.40;;;;;;5055669;28;20112;-68
2023/09/17 08:04:25;;;;;;;6.63;3.60;;;34.00;49.30;;;;;;5055333;28;20045;-69
2023/09/17 08:06:51;;;;;;;5.38;3.90;;;34.00;48.90;;;;;;5055389;28;20031;-68
2023/09/17 08:09:17;;;;;;;4.70;3.58;;;34.40;49.40;;;;;;5055007;28;20374;-69
2023/09/17 08:11:43;;;;;;;6.78;3.38;;;34.70;47.80;;;;;;5055082;28;20089;-69
2023/09/17 08:14:14;;;;;;;4.47;2.88;;;34.80;48.10;;;;;;5054580;28;20484;-69
2023/09/17 08:16:40;;;;;;;5.93;3.08;;;34.80;47.00;;;;;;5055301;28;20029;-69
2023/09/17 08:19:06;;;;;;;6.30;3.40;;;34.50;46.20;;;;;;5055180;28;20112;-69
2023/09/17 08:21:32;;;;;;;4.90;3.67;;;34.10;46.40;;;;;;5055044;28;20021;-69
2023/09/17 08:23:58;;;;;;;5.93;3.70;;;33.60;47.40;;;;;;5055035;28;20021;-69
2023/09/17 08:26:27;;;;;;;5.65;3.65;;;33.10;48.60;;;;;;5054533;28;20025;-69
2023/09/17 08:28:55;;;;;;;6.15;3.53;;;33.00;49.20;;;;;;5054670;28;20479;-68
2023/09/17 08:31:25;;;;;;;5.10;3.53;;;32.60;49.50;;;;;;5054707;28;20021;-68
2023/09/17 08:33:51;;;;;;;3.92;3.10;;;32.20;50.70;;;;;;5054804;28;20029;-67
2023/09/17 08:36:24;;;;;;;6.55;3.63;;;31.80;51.90;;;;;;5054505;28;20028;-68
2023/09/17 08:38:50;;;;;;;4.40;3.33;;;31.40;52.20;;;;;;5054735;28;20486;-68
2023/09/17 08:41:18;;;;;;;6.30;3.33;;;30.80;53.10;;;;;;5036504;28;20469;-69
2023/09/17 08:43:49;;;;;;;4.60;3.60;;;30.50;53.40;;;;;;5036685;28;20025;-67
2023/09/17 08:46:15;;;;;;;4.72;3.22;;;30.20;54.20;;;;;;5051122;28;20033;-69
2023/09/17 08:48:43;;;;;;;4.22;3.78;;;30.10;54.90;;;;;;5020296;28;20029;-67
2023/09/17 08:51:11;;;;;;;5.82;3.33;;;29.80;55.00;;;;;;5054364;28;20502;-69
2023/09/17 08:53:50;;;;;;;9.07;3.78;;;29.40;57.10;;;;;;5054469;28;20033;-69
2023/09/17 08:56:17;;;;;;;4.88;3.17;;;29.10;55.90;;;;;;5053839;28;20476;-68
2023/09/17 08:58:48;;;;;;;5.57;3.40;;;29.00;57.80;;;;;;5054469;28;20032;-68
2023/09/17 09:01:16;;;;;;;4.03;3.22;;;28.80;56.70;;;;;;5054184;28;20366;-68
2023/09/17 09:03:44;;;;;;;4.50;3.63;;;28.80;58.40;;;;;;5036356;28;20067;-69
2023/09/17 09:06:11;;;;;;;4.22;3.50;;;28.90;58.70;;;;;;5053671;28;20021;-68
2023/09/17 09:08:38;;;;;;;4.90;3.40;;;29.00;58.70;;;;;;5053805;28;20032;-69
2023/09/17 09:11:05;;;;;;;6.05;3.78;;;28.80;57.40;;;;;;5053903;28;20024;-69
2023/09/17 09:13:32;;;;;;;5.90;3.53;;;28.70;58.30;;;;;;5053606;28;20047;-68
2023/09/17 09:15:58;;;;;;;3.78;3.40;;;28.70;59.90;;;;;;5053797;28;20085;-68
2023/09/17 09:18:24;;;;;;;4.15;3.20;;;28.90;59.00;;;;;;5053699;28;20475;-68
2023/09/17 09:20:50;;;;;;;4.18;3.58;;;29.00;58.80;;;;;;5053966;28;20063;-68
2023/09/17 09:23:16;;;;;;;6.90;3.35;;;29.00;58.70;;;;;;5053562;28;20057;-69
2023/09/17 09:25:42;;;;;;;5.10;3.17;;;29.10;58.30;;;;;;5053634;28;20040;-69
2023/09/17 09:28:07;;;;;;;3.47;3.10;;;29.20;58.00;;;;;;5053655;28;20024;-68
2023/09/17 09:30:36;;;;;;;4.95;3.25;;;29.30;58.50;;;;;;5052953;28;20517;-68
2023/09/17 09:33:02;;;;;;;4.05;3.38;;;29.20;57.40;;;;;;5035713;28;20124;-68
2023/09/17 09:35:29;;;;;;;3.78;3.30;;;29.10;58.10;;;;;;5052950;28;20457;-68
2023/09/17 09:37:54;;;;;;;3.78;3.00;;;29.20;58.40;;;;;;5053490;28;20036;-68
2023/09/17 09:40:21;;;;;;;3.95;3.45;;;29.20;58.60;;;;;;5052796;28;20025;-68
2023/09/17 09:42:48;;;;;;;7.78;3.30;;;29.10;57.10;;;;;;5053504;28;20052;-68
2023/09/17 09:45:18;;;;;;;4.13;3.40;;;28.90;57.20;;;;;;5035241;28;20029;-68
2023/09/17 09:47:51;;;;;;;5.53;4.03;;;28.80;58.90;;;;;;5053346;28;20096;-68
2023/09/17 09:50:27;;;;;;;5.20;3.50;;;28.80;58.80;;;;;;5052945;28;20025;-69
2023/09/17 09:52:54;;;;;;;5.22;2.83;;;28.80;58.80;;;;;;5053149;28;20108;-68
2023/09/17 09:55:24;;;;;;;9.18;3.38;;;28.80;59.70;;;;;;5052845;28;20462;-69
2023/09/17 09:57:51;;;;;;;3.42;3.13;;;29.00;59.70;;;;;;5050551;28;20120;-68
2023/09/17 10:00:20;;;;;;;3.70;3.20;;;29.10;58.50;;;;;;5032880;28;20030;-69
2023/09/17 10:02:47;;;;;;;4.40;3.40;;;29.10;58.60;;;;;;5035479;28;20022;-68
2023/09/17 10:05:18;;;;;;;7.95;6.18;;;29.10;58.50;;;;;;5033171;28;20034;-68
2023/09/17 10:07:47;;;;;;;3.70;3.40;;;29.10;57.70;;;;;;5033415;28;20017;-70
2023/09/17 10:10:13;;;;;;;5.20;3.70;;;28.90;57.60;;;;;;5033144;28;20032;-68
2023/09/17 10:12:39;;;;;;;3.55;3.25;;;29.10;58.50;;;;;;5032812;28;20025;-70
2023/09/17 10:15:06;;;;;;;3.65;3.03;;;29.20;57.90;;;;;;5032997;28;20037;-69
2023/09/17 10:17:35;;;;;;;5.00;3.22;;;29.10;57.40;;;;;;5032359;28;20033;-67
2023/09/17 10:20:06;;;;;;;5.30;3.53;;;28.90;58.10;;;;;;5032810;28;20025;-68
2023/09/17 10:22:38;;;;;;;5.60;3.33;;;29.00;57.90;;;;;;5014870;28;20089;-69
2023/09/17 10:25:05;;;;;;;3.67;2.88;;;29.00;57.50;;;;;;5032884;28;20029;-69
2023/09/17 10:27:32;;;;;;;4.13;3.28;;;29.00;57.40;;;;;;5032176;28;20052;-68
2023/09/17 10:29:58;;;;;;;4.47;3.33;;;29.00;57.50;;;;;;5033004;28;20025;-68
2023/09/17 10:32:26;;;;;;;5.13;3.03;;;29.00;57.90;;;;;;5032300;28;20088;-68
2023/09/17 10:34:56;;;;;;;3.63;2.97;;;29.00;57.30;;;;;;5032351;28;20525;-68
2023/09/17 10:37:23;;;;;;;;;;;28.90;57.30;;;;;;5050627;28;20389;-69
2023/09/17 10:39:49;;;;;;;4.05;2.92;;;28.90;58.20;;;;;;5052460;28;19905;-69
2023/09/17 10:42:17;;;;;;;5.03;3.13;;;28.90;58.30;;;;;;5052275;28;20053;-68
2023/09/17 10:44:44;;;;;;;5.57;3.10;;;29.00;58.30;;;;;;5051722;28;20029;-68
2023/09/17 10:47:13;;;;;;;3.78;3.25;;;29.20;58.00;;;;;;5034525;28;20033;-68
2023/09/17 10:49:40;;;;;;;4.03;2.92;;;29.20;57.60;;;;;;5052287;28;20040;-68
2023/09/17 10:52:07;;;;;;;3.35;3.05;;;29.30;57.00;;;;;;5052377;28;20385;-69
2023/09/17 10:54:33;;;;;;;3.58;2.72;;;29.40;56.90;;;;;;5051686;28;20048;-67
2023/09/17 10:57:11;;;;;;;4.13;2.90;;;29.40;56.10;;;;;;5052279;28;20155;-68
2023/09/17 10:59:38;;;;;;;3.47;2.95;;;29.40;56.10;;;;;;5052036;28;20048;-68
2023/09/17 11:02:06;;;;;;;4.38;2.83;;;29.40;56.30;;;;;;5052381;28;20388;-68
2023/09/17 11:04:35;;;;;;;3.13;2.50;;;29.30;55.80;;;;;;5051836;28;20033;-68
2023/09/17 11:07:06;;;;;;;4.20;2.83;;;29.40;56.00;;;;;;5052235;28;20061;-68
2023/09/17 11:09:32;;;;;;;3.78;2.65;;;29.40;55.40;;;;;;5051900;28;20025;-69
2023/09/17 11:11:58;;;;;;;3.50;3.20;;;29.30;55.40;;;;;;5052035;28;20094;-68
2023/09/17 11:14:24;;;;;;;4.60;2.88;;;29.40;56.20;;;;;;5033870;28;20500;-69
2023/09/17 11:16:50;;;;;;;3.70;3.30;;;29.50;56.40;;;;;;5052414;28;20025;-68
2023/09/17 11:19:18;;;;;;;3.20;2.80;;;29.60;56.20;;;;;;5052130;28;20546;-68
2023/09/17 11:21:48;;;;;;;4.25;3.08;;;29.50;55.90;;;;;;5051446;28;20096;-67
2023/09/17 11:24:17;;;;;;;2.97;2.63;;;29.60;56.40;;;;;;5052171;28;20021;-67
2023/09/17 11:26:47;;;;;;;4.88;2.92;;;29.70;55.90;;;;;;5051696;28;20503;-67
2023/09/17 11:29:14;;;;;;;4.25;2.80;;;29.80;56.00;;;;;;5051906;28;20021;-69
2023/09/17 11:31:52;;;;;;;3.95;2.65;;;29.80;55.40;;;;;;5055152;28;20033;-68
2023/09/17 11:34:18;;;;;;;5.30;2.65;;;29.70;55.00;;;;;;5055595;28;20040;-69
2023/09/17 11:36:47;;;;;;;2.80;2.50;;;29.80;55.40;;;;;;5055085;28;20427;-68
2023/09/17 11:39:20;;;;;;;2.38;2.17;;;29.80;54.80;;;;;;5055901;28;20025;-69
2023/09/17 11:41:51;;;;;;;4.97;2.85;;;29.90;55.30;;;;;;5055473;28;20056;-69
2023/09/17 11:44:20;;;;;;;6.78;2.47;;;29.80;54.90;;;;;;5055656;28;20116;-68
2023/09/17 11:46:46;;;;;;;2.85;2.58;;;29.90;56.30;;;;;;5055229;28;20082;-68
2023/09/17 11:49:14;;;;;;;3.10;2.80;;;29.90;54.90;;;;;;5055403;28;20032;-68
2023/09/17 11:51:47;;;;;;;3.70;2.75;;;29.90;54.00;;;;;;5054713;28;20397;-68
2023/09/17 11:54:20;;;;;;;2.58;2.33;;;30.00;54.50;;;;;;5055381;28;20032;-68
2023/09/17 11:56:50;;;;;;;3.95;2.78;;;30.00;53.90;;;;;;5054842;28;20037;-69
2023/09/17 11:59:18;;;;;;;4.05;2.45;;;30.00;54.40;;;;;;5055132;28;20385;-69
2023/09/17 12:01:57;;;;;;;4.15;2.60;;;29.90;54.00;;;;;;5037238;28;20355;-68
2023/09/17 12:04:37;;;;;;;4.95;2.40;;;29.90;54.50;;;;;;5055182;28;20032;-68
2023/09/17 12:07:09;;;;;;;6.65;3.05;;;29.80;54.50;;;;;;5055358;28;20037;-69
2023/09/17 12:12:12;;;;;;;2.67;2.47;;;29.80;54.60;;;;;;5037306;28;20031;-68
2023/09/17 12:14:39;;;;;;;3.35;2.58;;;29.80;53.70;;;;;;5034462;28;20175;-69
2023/09/17 12:17:05;;;;;;;5.88;2.80;;;29.50;54.70;;;;;;5035190;28;20103;-68
2023/09/17 12:19:32;;;;;;;3.88;2.65;;;29.50;55.60;;;;;;5034957;28;20124;-69
2023/09/17 12:21:59;;;;;;;2.75;2.40;;;29.40;56.30;;;;;;5035165;28;20362;-68
2023/09/17 12:24:47;;;;;;;3.40;2.60;;;29.30;55.60;;;;;;5035018;28;20131;-68
2023/09/17 12:27:34;;;;;;;4.55;2.60;;;29.20;56.00;;;;;;5035047;28;20393;-68
2023/09/17 12:30:05;;;;;;;3.30;2.60;;;29.20;57.00;;;;;;5035188;28;20025;-68
2023/09/17 12:32:33;;;;;;;4.97;3.03;;;29.10;57.40;;;;;;5034746;28;20029;-69
2023/09/17 12:34:59;;;;;;;3.22;2.63;;;29.00;56.90;;;;;;5034920;28;20083;-68
2023/09/17 12:37:26;;;;;;;4.80;2.83;;;28.90;57.20;;;;;;5034903;28;20029;-68
2023/09/17 12:39:53;;;;;;;3.08;2.78;;;28.90;57.70;;;;;;5034449;28;20036;-68
2023/09/17 12:42:21;;;;;;;3.50;2.60;;;28.80;57.50;;;;;;5034367;28;20367;-68
2023/09/17 12:44:47;;;;;;;3.20;2.90;;;28.70;57.10;;;;;;5036691;28;20044;-69
2023/09/17 12:47:15;;;;;;;3.45;2.28;;;28.60;56.80;;;;;;5034682;28;20028;-69